Time;durP1;ratioP1;P1;durP2;ratioP2;P2;SDS_P1;SDS_P2;PMS_P1;PMS_P2;Temp;Humidity;BMP_temperature;BMP_pressure;BME280_temperature;BME280_humidity;BME280_pressure;Samples;Min_cycle;Max_cycle;Signal;HPM_P1;HPM_P2
2022/08/16 00:00:12;;;;;;;10.93;9.05;;;;;;;24.04;50.25;100503.69;4952989;28;125273;-72
2022/08/16 00:02:49;;;;;;;12.77;9.30;;;;;;;23.96;50.31;100503.66;4958674;28;122909;-72
2022/08/16 00:05:19;;;;;;;14.68;10.63;;;;;;;23.88;50.67;100505.34;4961741;28;113220;-72
2022/08/16 00:07:48;;;;;;;13.40;10.38;;;;;;;23.82;50.83;100511.38;4957874;28;114263;-72
2022/08/16 00:10:24;;;;;;;14.38;10.35;;;;;;;23.77;50.87;100519.13;4968309;28;124744;-72
2022/08/16 00:12:52;;;;;;;18.92;12.55;;;;;;;23.74;51.24;100514.03;4969269;28;122843;-72
2022/08/16 00:15:39;;;;;;;17.83;11.77;;;;;;;23.71;51.50;100508.94;4967850;28;114579;-72
2022/08/16 00:18:20;;;;;;;17.83;14.00;;;;;;;23.69;51.52;100511.81;4957185;28;113806;-72
2022/08/16 00:20:56;;;;;;;17.15;13.57;;;;;;;23.67;51.79;100518.41;4966063;28;124004;-72
2022/08/16 00:23:23;;;;;;;16.58;13.57;;;;;;;23.66;51.98;100519.41;4969543;28;124237;-72
2022/08/16 00:26:07;;;;;;;18.75;13.70;;;;;;;23.65;52.14;100515.84;4962491;28;114933;-72
2022/08/16 00:28:54;;;;;;;17.20;13.27;;;;;;;23.65;51.94;100515.00;4961567;28;114311;-72
2022/08/16 00:31:21;;;;;;;17.73;12.85;;;;;;;23.65;51.87;100509.59;4968536;28;124037;-72
2022/08/16 00:33:50;;;;;;;20.05;14.90;;;;;;;23.65;52.21;100515.00;4950782;28;123012;-72
2022/08/16 00:36:18;;;;;;;19.05;13.55;;;;;;;23.65;52.24;100515.00;4968193;28;114100;-72
2022/08/16 00:38:46;;;;;;;19.77;13.45;;;;;;;23.65;52.16;100520.41;4969016;28;113936;-71
2022/08/16 00:41:14;;;;;;;16.83;13.40;;;;;;;23.64;52.14;100518.72;4951457;28;124312;-72
2022/08/16 00:43:43;;;;;;;16.55;13.85;;;;;;;23.63;52.09;100517.88;4967980;28;122963;-71
2022/08/16 00:46:24;;;;;;;17.02;12.27;;;;;;;23.62;52.09;100512.63;4938618;28;113474;-71
2022/08/16 00:49:07;;;;;;;15.10;12.00;;;;;;;23.60;52.41;100522.75;4938976;28;113770;-72
2022/08/16 00:51:47;;;;;;;15.68;11.95;;;;;;;23.59;52.12;100526.47;4950268;28;123766;-71
2022/08/16 00:54:25;;;;;;;15.15;11.38;;;;;;;23.56;52.05;100526.78;4967449;28;123526;-72
2022/08/16 00:56:53;;;;;;;16.08;11.05;;;;;;;23.48;52.05;100525.75;4968788;28;114357;-72
2022/08/16 00:59:29;;;;;;;14.35;11.63;;;;;;;23.42;52.27;100525.53;4969609;28;114516;-71
2022/08/16 01:01:59;;;;;;;16.10;13.32;;;;;;;23.35;52.61;100528.03;4967010;28;123635;-72
2022/08/16 01:04:47;;;;;;;15.25;12.05;;;;;;;23.28;52.29;100537.78;4968702;28;123887;-72
2022/08/16 01:07:34;;;;;;;17.17;12.32;;;;;;;23.21;52.46;100534.03;4965861;28;113742;-72
2022/08/16 01:10:24;;;;;;;18.67;12.82;;;;;;;23.15;52.67;100540.06;4967387;28;113629;-72
2022/08/16 01:13:12;;;;;;;19.50;13.60;;;;;;;23.10;52.79;100535.97;4956887;28;123963;-72
2022/08/16 01:15:59;;;;;;;17.10;12.97;;;;;;;23.08;52.84;100529.91;4963895;28;122874;-72
2022/08/16 01:18:39;;;;;;;17.33;13.23;;;;;;;23.04;52.94;100528.53;4942282;28;115452;-72
2022/08/16 01:21:17;;;;;;;18.58;14.05;;;;;;;23.02;52.83;100530.50;4967232;28;113944;-72
2022/08/16 01:24:02;;;;;;;17.02;13.23;;;;;;;22.96;52.85;100525.72;4968025;28;124029;-72
2022/08/16 01:26:32;;;;;;;16.98;13.15;;;;;;;22.92;53.08;100524.34;4950798;28;122367;-72
2022/08/16 01:29:07;;;;;;;19.90;13.88;;;;;;;22.89;53.21;100530.06;4950939;28;113745;-71
2022/08/16 01:31:37;;;;;;;17.50;14.25;;;;;;;22.86;53.57;100524.97;4950331;28;113174;-73
2022/08/16 01:34:13;;;;;;;18.55;13.23;;;;;;;22.82;53.66;100529.00;4950661;28;123620;-74
2022/08/16 01:37:05;;;;;;;18.13;13.75;;;;;;;22.80;53.22;100525.59;4967178;28;123555;-73
2022/08/16 01:39:35;;;;;;;18.40;13.30;;;;;;;22.77;53.18;100523.22;4953397;28;114352;-74
2022/08/16 01:42:06;;;;;;;18.13;13.18;;;;;;;22.71;53.12;100525.53;4956241;28;113863;-74
2022/08/16 01:44:40;;;;;;;17.80;14.20;;;;;;;22.66;53.38;100530.56;4935030;28;123303;-75
2022/08/16 01:47:09;;;;;;;21.05;13.80;;;;;;;22.60;53.41;100536.56;4940110;28;122916;-74
2022/08/16 01:49:40;;;;;;;19.13;14.93;;;;;;;22.55;53.74;100534.34;4970392;28;114828;-73
2022/08/16 01:52:27;;;;;;;20.73;15.40;;;;;;;22.51;53.72;100527.56;4964878;28;113524;-73
2022/08/16 01:55:21;;;;;;;18.58;14.85;;;;;;;22.49;54.03;100523.28;4971630;28;123792;-75
2022/08/16 01:57:50;;;;;;;21.45;15.50;;;;;;;22.48;54.04;100521.63;4953441;28;123293;-74
2022/08/16 02:00:20;;;;;;;21.92;15.73;;;;;;;22.47;54.13;100520.78;4969678;28;114445;-74
2022/08/16 02:02:57;;;;;;;18.10;13.63;;;;;;;22.46;54.19;100523.63;4967341;28;112965;-71
2022/08/16 02:05:24;;;;;;;17.58;13.73;;;;;;;22.45;54.30;100520.09;4964914;28;123823;-71
2022/08/16 02:07:57;;;;;;;20.70;14.25;;;;;;;22.44;54.48;100520.22;4951178;28;122953;-72
2022/08/16 02:10:25;;;;;;;18.73;13.93;;;;;;;22.43;54.46;100524.75;4951888;28;115163;-72
2022/08/16 02:12:54;;;;;;;19.08;14.02;;;;;;;22.42;54.67;100516.84;4966145;28;114423;-72
2022/08/16 02:15:28;;;;;;;16.30;12.88;;;;;;;22.40;54.81;100513.47;4950182;28;123036;-73
2022/08/16 02:17:59;;;;;;;15.13;12.50;;;;;;;22.40;54.94;100518.84;4967736;28;123783;-72
2022/08/16 02:20:31;;;;;;;17.25;13.38;;;;;;;22.39;54.97;100520.69;4969988;28;113269;-72
2022/08/16 02:23:01;;;;;;;16.05;13.30;;;;;;;22.38;54.76;100521.69;4952807;28;113442;-71
2022/08/16 02:25:33;;;;;;;17.58;13.13;;;;;;;22.37;54.91;100521.84;4953037;28;124014;-71
2022/08/16 02:28:22;;;;;;;15.35;11.73;;;;;;;22.34;55.05;100526.56;4969934;28;124010;-71
2022/08/16 02:30:51;;;;;;;17.88;12.40;;;;;;;22.34;55.04;100517.63;4953510;28;113388;-71
2022/08/16 02:33:23;;;;;;;15.68;12.25;;;;;;;22.31;54.95;100521.44;4969906;28;114109;-72
2022/08/16 02:36:15;;;;;;;15.40;12.45;;;;;;;22.29;54.78;100518.06;4929349;28;123277;-72
2022/08/16 02:39:04;;;;;;;14.00;11.88;;;;;;;22.27;54.98;100525.47;4969665;28;124327;-72
2022/08/16 02:41:35;;;;;;;14.93;11.65;;;;;;;22.25;55.11;100515.81;4970807;28;115082;-72
2022/08/16 02:44:06;;;;;;;16.60;11.75;;;;;;;22.23;55.08;100518.66;4953178;28;113639;-72
2022/08/16 02:46:33;;;;;;;17.02;11.45;;;;;;;22.21;55.24;100515.25;4935894;28;123221;-72
2022/08/16 02:49:04;;;;;;;13.45;10.48;;;;;;;22.20;55.41;100518.09;4951955;28;123065;-72
2022/08/16 02:51:34;;;;;;;16.13;10.88;;;;;;;22.18;55.34;100520.94;4939833;28;113758;-72
2022/08/16 02:54:03;;;;;;;14.32;10.65;;;;;;;22.17;55.33;100513.88;4965605;28;113935;-72
2022/08/16 02:56:31;;;;;;;16.15;11.38;;;;;;;22.16;55.52;100522.94;4952439;28;123341;-72
2022/08/16 02:58:59;;;;;;;14.70;10.40;;;;;;;22.16;55.64;100517.56;4956205;28;123021;-72
2022/08/16 03:01:30;;;;;;;15.52;10.95;;;;;;;22.13;55.61;100518.72;4942262;28;114785;-72
2022/08/16 03:04:21;;;;;;;14.85;10.70;;;;;;;22.11;55.71;100519.84;4955581;28;115391;-72
2022/08/16 03:07:09;;;;;;;15.27;10.77;;;;;;;22.10;55.73;100520.88;4966891;28;123756;-72
2022/08/16 03:09:40;;;;;;;13.63;10.38;;;;;;;22.09;55.58;100513.75;4967527;28;124021;-73
2022/08/16 03:12:11;;;;;;;13.00;10.55;;;;;;;22.10;55.75;100512.78;4966700;28;113678;-72
2022/08/16 03:14:42;;;;;;;15.63;10.10;;;;;;;22.09;55.64;100514.59;4953058;28;113521;-72
2022/08/16 03:17:10;;;;;;;13.07;9.88;;;;;;;22.09;55.69;100521.84;4951622;28;123131;-72
2022/08/16 03:19:39;;;;;;;15.05;10.05;;;;;;;22.08;55.86;100509.38;4969423;28;123684;-72
2022/08/16 03:22:26;;;;;;;14.05;10.10;;;;;;;22.06;55.79;100511.41;4953845;28;114133;-72
2022/08/16 03:24:58;;;;;;;15.57;10.80;;;;;;;22.06;55.86;100512.22;4957229;28;113646;-72
2022/08/16 03:27:30;;;;;;;15.10;10.43;;;;;;;22.05;55.94;100515.06;4952358;28;124147;-72
2022/08/16 03:30:08;;;;;;;15.57;10.07;;;;;;;22.04;55.94;100518.75;4957917;28;124138;-74
2022/08/16 03:32:47;;;;;;;13.13;9.93;;;;;;;22.02;55.96;100513.53;4942002;28;113517;-72
2022/08/16 03:35:24;;;;;;;17.20;10.52;;;;;;;22.01;55.96;100514.53;4968392;28;113604;-72
2022/08/16 03:38:06;;;;;;;13.63;9.77;;;;;;;22.01;55.88;100519.09;4951809;28;122290;-71
2022/08/16 03:40:56;;;;;;;14.30;9.65;;;;;;;22.00;55.71;100512.84;4953681;28;127632;-71
2022/08/16 03:43:26;;;;;;;12.23;9.43;;;;;;;21.99;55.72;100515.69;4949698;28;113738;-71
2022/08/16 03:46:19;;;;;;;13.55;10.13;;;;;;;21.95;55.72;100515.97;4949590;28;113184;-71
2022/08/16 03:49:10;;;;;;;13.13;9.90;;;;;;;21.92;55.67;100518.97;4950959;28;123389;-71
2022/08/16 03:51:41;;;;;;;13.63;9.60;;;;;;;21.91;56.11;100528.06;4940263;28;124608;-71
2022/08/16 03:54:11;;;;;;;13.18;10.10;;;;;;;21.87;56.01;100529.38;4962998;28;115000;-71
2022/08/16 03:56:42;;;;;;;13.88;10.23;;;;;;;21.86;56.07;100530.38;4971184;28;114439;-71
2022/08/16 03:59:25;;;;;;;12.10;9.60;;;;;;;21.83;55.97;100522.59;4951244;28;122690;-71
2022/08/16 04:02:00;;;;;;;13.70;9.82;;;;;;;21.79;56.09;100529.25;4959589;28;123497;-71
2022/08/16 04:04:30;;;;;;;11.35;9.23;;;;;;;21.77;56.28;100534.81;4951858;28;115656;-71
2022/08/16 04:07:04;;;;;;;11.60;9.23;;;;;;;21.74;56.36;100534.28;4968374;28;113481;-72
2022/08/16 04:09:36;;;;;;;13.43;9.10;;;;;;;21.73;56.41;100540.66;4950883;28;123173;-71
2022/08/16 04:12:06;;;;;;;13.68;9.77;;;;;;;21.72;56.53;100541.66;4951014;28;123281;-71
2022/08/16 04:14:39;;;;;;;13.35;10.13;;;;;;;21.71;56.54;100550.75;4964643;28;113377;-71
2022/08/16 04:17:16;;;;;;;13.57;9.48;;;;;;;21.69;56.22;100548.19;4950065;28;113212;-71
2022/08/16 04:19:45;;;;;;;13.93;9.65;;;;;;;21.69;56.53;100547.34;4965978;28;123471;-72
2022/08/16 04:22:15;;;;;;;13.93;9.85;;;;;;;21.67;56.54;100550.19;4950826;28;123515;-72
2022/08/16 04:24:50;;;;;;;12.23;9.48;;;;;;;21.67;56.64;100554.72;4950309;28;113554;-72
2022/08/16 04:27:22;;;;;;;12.65;9.82;;;;;;;21.65;56.62;100567.50;4937955;28;113487;-72
2022/08/16 04:29:50;;;;;;;13.95;10.00;;;;;;;21.63;56.55;100558.72;4960032;28;123756;-72
2022/08/16 04:32:19;;;;;;;16.08;10.25;;;;;;;21.62;56.72;100557.00;4953785;28;122410;-72
2022/08/16 04:34:52;;;;;;;14.02;9.93;;;;;;;21.61;56.65;100566.13;4952824;28;113594;-71
2022/08/16 04:37:20;;;;;;;13.43;9.10;;;;;;;21.61;56.85;100566.13;4979445;28;113292;-71
2022/08/16 04:39:53;;;;;;;13.30;10.07;;;;;;;21.62;56.91;100567.78;4975979;28;123639;-71
2022/08/16 04:42:24;;;;;;;13.50;9.95;;;;;;;21.62;56.72;100567.78;4952089;28;123376;-72
2022/08/16 04:44:57;;;;;;;13.40;9.85;;;;;;;21.62;56.91;100573.19;4952648;28;114489;-72
2022/08/16 04:47:30;;;;;;;12.55;9.68;;;;;;;21.61;56.86;100561.56;4949693;28;113246;-72
2022/08/16 04:50:20;;;;;;;15.20;10.70;;;;;;;21.61;56.85;100566.97;4951810;28;123532;-71
2022/08/16 04:52:57;;;;;;;14.52;10.38;;;;;;;21.61;56.86;100571.50;4967643;28;123131;-72
2022/08/16 04:55:30;;;;;;;14.93;10.15;;;;;;;21.61;57.06;100571.50;4950370;28;113730;-72
2022/08/16 04:58:06;;;;;;;14.70;10.15;;;;;;;21.64;56.96;100579.28;4952046;28;113209;-72
2022/08/16 05:00:56;;;;;;;14.38;10.23;;;;;;;21.64;57.02;100581.97;4944548;28;124585;-72
2022/08/16 05:03:23;;;;;;;13.85;10.00;;;;;;;21.67;57.08;100576.28;4963899;28;123459;-72
2022/08/16 05:05:53;;;;;;;14.70;10.90;;;;;;;21.70;56.99;100575.97;4981687;28;112573;-72
2022/08/16 05:08:31;;;;;;;13.38;10.40;;;;;;;21.72;57.10;100574.00;4953240;28;113592;-72
2022/08/16 05:11:07;;;;;;;14.93;10.32;;;;;;;21.74;57.16;100582.81;4949917;28;123633;-72
2022/08/16 05:13:37;;;;;;;15.63;10.07;;;;;;;21.76;57.17;100588.88;4950315;28;123579;-72
2022/08/16 05:16:18;;;;;;;16.27;10.75;;;;;;;21.78;57.17;100592.28;4951977;28;113776;-71
2022/08/16 05:18:56;;;;;;;14.15;10.35;;;;;;;21.80;57.07;100587.59;4945553;28;114189;-72
2022/08/16 05:21:27;;;;;;;14.15;10.93;;;;;;;21.82;57.19;100585.59;4968234;28;124167;-71
2022/08/16 05:24:05;;;;;;;13.90;10.85;;;;;;;21.85;57.24;100582.59;4954460;28;123592;-71
2022/08/16 05:26:36;;;;;;;14.32;11.00;;;;;;;21.86;57.06;100581.59;4955209;28;114273;-71
2022/08/16 05:29:07;;;;;;;14.30;10.85;;;;;;;21.89;56.99;100586.69;4939741;28;114208;-72
2022/08/16 05:31:42;;;;;;;14.75;11.43;;;;;;;21.94;57.17;100583.53;4951656;28;123087;-71
2022/08/16 05:34:17;;;;;;;15.77;10.93;;;;;;;21.97;56.97;100583.25;4968562;28;122685;-72
2022/08/16 05:36:49;;;;;;;16.00;11.20;;;;;;;21.99;57.15;100585.81;4932688;28;114553;-72
2022/08/16 05:39:19;;;;;;;14.98;10.85;;;;;;;22.02;56.97;100585.50;4950300;28;114503;-72
2022/08/16 05:41:50;;;;;;;18.73;11.20;;;;;;;22.05;57.18;100587.91;4931233;28;123325;-72
2022/08/16 05:44:20;;;;;;;14.70;11.18;;;;;;;22.08;57.08;100595.69;4964227;28;122970;-73
2022/08/16 05:46:56;;;;;;;16.20;11.57;;;;;;;22.11;57.20;100600.78;4950592;28;113492;-72
2022/08/16 05:49:29;;;;;;;25.92;11.60;;;;;;;22.14;57.04;100595.09;4964216;28;113690;-73
2022/08/16 05:52:09;;;;;;;15.77;11.45;;;;;;;22.18;57.21;100596.47;4944112;28;124065;-72
2022/08/16 05:54:41;;;;;;;15.38;12.20;;;;;;;22.22;57.18;100603.25;4966216;28;123188;-72
2022/08/16 05:57:16;;;;;;;17.50;12.27;;;;;;;22.25;57.24;100600.31;4954708;28;113742;-71
2022/08/16 05:59:46;;;;;;;15.52;12.00;;;;;;;22.29;57.23;100599.00;4949724;28;113392;-72
2022/08/16 06:02:26;;;;;;;17.45;12.60;;;;;;;22.35;57.39;100598.38;4948518;28;123960;-71
2022/08/16 06:04:56;;;;;;;17.63;12.77;;;;;;;22.41;57.20;100602.31;4952312;28;122968;-72
2022/08/16 06:07:24;;;;;;;14.60;12.02;;;;;;;22.47;57.23;100606.28;4950046;28;113453;-72
2022/08/16 06:10:16;;;;;;;17.27;12.73;;;;;;;22.52;57.30;100603.97;4962165;28;114058;-71
2022/08/16 06:12:58;;;;;;;14.50;11.90;;;;;;;22.58;57.07;100608.75;4935350;28;122926;-72
2022/08/16 06:15:26;;;;;;;18.05;13.02;;;;;;;22.64;57.13;100608.16;4949921;28;123475;-71
2022/08/16 06:17:58;;;;;;;17.70;12.85;;;;;;;22.69;57.06;100611.22;4963353;28;113865;-71
2022/08/16 06:20:28;;;;;;;19.88;12.98;;;;;;;22.76;57.01;100616.88;4959386;28;115271;-72
2022/08/16 06:23:08;;;;;;;18.63;12.98;;;;;;;22.84;56.91;100618.78;4965418;28;123170;-74
2022/08/16 06:26:04;;;;;;;17.65;13.02;;;;;;;22.92;56.84;100621.56;4944842;28;124188;-74
2022/08/16 06:28:37;;;;;;;17.70;13.43;;;;;;;23.00;57.00;100628.88;4950386;28;114978;-71
2022/08/16 06:31:10;;;;;;;17.55;13.82;;;;;;;23.08;56.80;100627.16;4953716;28;114423;-71
2022/08/16 06:33:42;;;;;;;18.88;13.63;;;;;;;23.17;56.77;100624.50;4953289;28;123835;-71
2022/08/16 06:36:12;;;;;;;15.05;13.32;;;;;;;23.28;56.80;100626.97;4946910;28;123534;-71
2022/08/16 06:38:45;;;;;;;18.88;13.50;;;;;;;23.40;56.59;100625.72;4947721;28;113428;-71
2022/08/16 06:41:33;;;;;;;18.60;14.05;;;;;;;23.54;56.44;100623.44;4969522;28;113099;-71
2022/08/16 06:44:09;;;;;;;19.88;14.07;;;;;;;23.65;56.39;100623.16;4941710;28;123621;-71
2022/08/16 06:46:51;;;;;;;17.60;13.35;;;;;;;23.77;56.02;100616.50;4968934;28;123602;-71
2022/08/16 06:49:19;;;;;;;17.00;13.32;;;;;;;23.89;55.91;100620.63;4952617;28;113042;-71
2022/08/16 06:51:47;;;;;;;17.40;13.63;;;;;;;24.02;55.76;100624.75;4968882;28;113969;-71
2022/08/16 06:54:20;;;;;;;15.10;13.02;;;;;;;24.14;55.45;100623.44;4949624;28;123120;-71
2022/08/16 06:56:47;;;;;;;15.45;13.32;;;;;;;24.29;55.65;100632.63;4968286;28;123079;-71
2022/08/16 06:59:21;;;;;;;16.98;13.88;;;;;;;24.44;55.19;100630.13;4957067;28;113547;-70
2022/08/16 07:01:53;;;;;;;18.58;14.15;;;;;;;24.60;55.01;100621.25;4968641;28;113461;-71
2022/08/16 07:04:26;;;;;;;17.88;13.20;;;;;;;24.75;54.40;100626.00;4967637;28;124770;-71
2022/08/16 07:07:04;;;;;;;14.80;12.32;;;;;;;24.86;54.33;100631.09;4967304;28;123894;-72
2022/08/16 07:09:32;;;;;;;15.82;13.45;;;;;;;24.99;53.91;100633.31;4952683;28;114075;-71
2022/08/16 07:12:00;;;;;;;18.30;13.85;;;;;;;25.11;53.89;100631.97;4952092;28;113824;-70
2022/08/16 07:14:33;;;;;;;15.73;13.15;;;;;;;25.27;53.66;100635.72;4952426;28;124663;-75
2022/08/16 07:17:06;;;;;;;16.40;13.05;;;;;;;25.42;53.50;100639.44;4967542;28;125468;-75
2022/08/16 07:19:38;;;;;;;18.02;13.93;;;;;;;25.53;53.12;100649.09;4966923;28;114741;-74
2022/08/16 07:22:30;;;;;;;16.85;13.48;;;;;;;25.66;52.78;100641.25;4967776;28;114316;-74
2022/08/16 07:25:13;;;;;;;18.52;14.05;;;;;;;25.80;52.81;100645.97;4950907;28;123737;-74
2022/08/16 07:27:43;;;;;;;18.23;13.05;;;;;;;25.95;52.54;100650.72;4969116;28;124294;-74
2022/08/16 07:30:16;;;;;;;17.73;13.50;;;;;;;26.09;52.35;100657.25;4936489;28;112865;-75
2022/08/16 07:33:04;;;;;;;14.90;12.48;;;;;;;26.29;51.80;100663.13;4964939;28;114169;-75
2022/08/16 07:35:34;;;;;;;17.35;12.23;;;;;;;26.44;51.21;100666.78;4963494;28;124359;-75
2022/08/16 07:38:05;;;;;;;16.13;12.32;;;;;;;26.55;51.04;100660.97;4961841;28;123855;-75
2022/08/16 07:40:40;;;;;;;15.60;12.25;;;;;;;26.67;50.67;100658.72;4951374;28;113855;-75
2022/08/16 07:43:28;;;;;;;16.35;11.48;;;;;;;26.77;50.21;100667.50;4942300;28;113540;-75
2022/08/16 07:45:59;;;;;;;13.95;11.63;;;;;;;26.88;49.71;100668.97;4958253;28;123688;-75
2022/08/16 07:48:29;;;;;;;14.68;11.18;;;;;;;26.99;49.42;100682.13;4948755;28;126440;-76
2022/08/16 07:50:58;;;;;;;15.13;11.68;;;;;;;27.09;49.23;100681.06;4951506;28;114563;-75
2022/08/16 07:53:32;;;;;;;12.75;10.32;;;;;;;27.21;49.46;100679.59;4939073;28;113628;-75
2022/08/16 07:56:01;;;;;;;12.23;10.32;;;;;;;27.34;49.19;100674.41;4948639;28;123776;-76
2022/08/16 07:58:37;;;;;;;13.38;9.90;;;;;;;27.46;48.66;100665.81;4950396;28;122217;-75
2022/08/16 08:01:11;;;;;;;14.43;10.45;;;;;;;27.59;48.29;100671.44;4939580;28;113853;-75
2022/08/16 08:03:49;;;;;;;15.80;10.38;;;;;;;27.72;48.33;100666.22;4959223;28;114210;-75
2022/08/16 08:06:27;;;;;;;13.27;10.02;;;;;;;27.84;48.16;100673.91;4964351;28;123955;-75
2022/08/16 08:08:59;;;;;;;12.45;10.57;;;;;;;27.96;47.46;100677.91;4962147;28;122766;-74
2022/08/16 08:11:28;;;;;;;12.57;11.25;;;;;;;28.02;47.63;100682.59;4961919;28;114718;-74
2022/08/16 08:13:59;;;;;;;13.00;11.15;;;;;;;28.10;47.53;100679.78;4937198;28;114240;-76
2022/08/16 08:16:37;;;;;;;13.55;10.73;;;;;;;28.18;47.15;100678.00;4964704;28;123394;-75
2022/08/16 08:19:16;;;;;;;11.55;9.98;;;;;;;28.26;46.93;100672.47;4966530;28;123623;-75
2022/08/16 08:21:46;;;;;;;11.15;9.52;;;;;;;28.35;47.01;100682.22;4949601;28;113632;-75
2022/08/16 08:24:40;;;;;;;13.30;9.90;;;;;;;28.49;46.91;100677.78;4961990;28;115303;-76
2022/08/16 08:27:10;;;;;;;11.38;9.35;;;;;;;28.61;46.39;100683.59;4947926;28;123595;-75
2022/08/16 08:29:49;;;;;;;12.80;9.45;;;;;;;28.73;46.35;100685.63;4964478;28;123271;-75
2022/08/16 08:32:37;;;;;;;10.35;9.35;;;;;;;28.87;45.93;100686.63;4949085;28;113346;-74
2022/08/16 08:35:26;;;;;;;10.73;8.88;;;;;;;28.99;45.71;100695.16;4964479;28;112607;-73
2022/08/16 08:37:55;;;;;;;13.15;9.13;;;;;;;29.08;45.05;100693.13;4967339;28;124060;-73
2022/08/16 08:40:28;;;;;;;9.38;8.00;;;;;;;29.12;45.12;100689.84;4937253;28;124359;-73
2022/08/16 08:42:58;;;;;;;8.95;6.78;;;;;;;29.22;44.47;100694.16;4953131;28;114111;-73
2022/08/16 08:45:47;;;;;;;8.15;7.07;;;;;;;29.28;43.80;100693.38;4968148;28;112400;-73
2022/08/16 08:48:21;;;;;;;11.93;6.87;;;;;;;29.29;43.48;100690.44;4968275;28;123215;-73
2022/08/16 08:51:04;;;;;;;9.40;7.32;;;;;;;29.33;43.65;100690.03;4966643;28;123438;-73
2022/08/16 08:53:42;;;;;;;9.18;7.47;;;;;;;29.38;43.46;100698.47;4966363;28;113215;-74
2022/08/16 08:56:09;;;;;;;9.02;6.50;;;;;;;29.45;43.67;100699.38;4963935;28;113887;-74
2022/08/16 08:58:58;;;;;;;9.73;7.72;;;;;;;29.56;43.02;100701.59;4950967;28;123826;-74
2022/08/16 09:01:40;;;;;;;10.15;7.22;;;;;;;29.62;42.94;100700.78;4951213;28;122230;-74
2022/08/16 09:04:22;;;;;;;9.10;7.00;;;;;;;29.72;43.00;100710.50;4950237;28;115707;-74
2022/08/16 09:06:52;;;;;;;8.68;6.90;;;;;;;29.82;42.72;100714.63;4957541;28;114139;-74
2022/08/16 09:09:21;;;;;;;9.13;7.05;;;;;;;29.91;42.53;100712.56;4951484;28;123559;-74
2022/08/16 09:11:55;;;;;;;7.05;6.05;;;;;;;30.00;42.30;100714.09;4947038;28;123529;-74
2022/08/16 09:14:46;;;;;;;6.88;5.93;;;;;;;30.14;42.38;100697.78;4943425;28;114081;-74
2022/08/16 09:17:20;;;;;;;10.98;6.80;;;;;;;30.27;42.31;100704.19;4950640;28;114009;-74
2022/08/16 09:20:12;;;;;;;7.40;5.45;;;;;;;30.39;41.44;100690.81;4953816;28;122470;-74
2022/08/16 09:22:41;;;;;;;6.22;5.40;;;;;;;30.49;41.28;100703.25;4950173;28;125516;-74
2022/08/16 09:25:10;;;;;;;7.63;5.38;;;;;;;30.59;41.12;100701.84;4951211;28;112451;-74
2022/08/16 09:27:41;;;;;;;5.95;5.22;;;;;;;30.70;40.68;100708.59;4966130;28;113173;-77
2022/08/16 09:30:30;;;;;;;6.35;4.93;;;;;;;30.79;40.58;100701.88;4963076;28;123335;-77
2022/08/16 09:33:11;;;;;;;7.45;5.25;;;;;;;30.88;40.37;100709.91;4950562;28;123722;-78
2022/08/16 09:35:40;;;;;;;7.15;6.32;;;;;;;30.93;39.80;100708.28;4966069;28;113911;-77
2022/08/16 09:38:12;;;;;;;6.35;5.25;;;;;;;30.98;39.67;100715.84;4964590;28;113887;-78
2022/08/16 09:41:00;;;;;;;5.40;4.57;;;;;;;31.04;39.35;100715.88;4960725;28;123537;-76
2022/08/16 09:43:29;;;;;;;7.05;4.72;;;;;;;31.05;38.67;100716.72;4967762;28;123352;-77
2022/08/16 09:46:17;;;;;;;5.45;4.53;;;;;;;31.07;38.89;100719.25;4954003;28;97012;-76
2022/08/16 09:49:04;;;;;;;4.75;4.25;;;;;;;31.13;38.98;100715.69;4965906;28;112915;-77
2022/08/16 09:51:34;;;;;;;7.40;4.30;;;;;;;31.21;38.88;100718.22;4947655;28;122977;-77
2022/08/16 09:54:05;;;;;;;6.60;4.15;;;;;;;31.28;38.08;100726.44;4966528;28;123905;-76
2022/08/16 09:56:38;;;;;;;7.57;4.20;;;;;;;31.33;38.09;100718.44;4948786;28;112921;-77
2022/08/16 09:59:08;;;;;;;5.78;4.10;;;;;;;31.39;37.62;100717.59;4943070;28;114836;-76
2022/08/16 10:01:37;;;;;;;5.00;4.20;;;;;;;31.45;37.82;100711.28;4959720;28;124329;-76
2022/08/16 10:04:10;;;;;;;6.28;4.10;;;;;;;31.52;37.58;100712.16;4968276;28;122723;-76
2022/08/16 10:06:57;;;;;;;5.28;4.00;;;;;;;31.57;37.43;100709.66;4963637;28;113525;-76
2022/08/16 10:09:27;;;;;;;4.90;3.75;;;;;;;31.63;37.15;100714.28;4950430;28;114512;-77
2022/08/16 10:15:09;;;;;;;5.93;4.05;;;;;;;31.70;36.86;100718.88;4968378;28;124310;-76
2022/08/16 10:17:44;;;;;;;;;;;;;;;31.69;37.86;100711.75;4969425;28;115012;-76
2022/08/16 10:20:31;;;;;;;4.63;4.07;;;;;;;31.75;37.30;100705.41;4965718;28;113627;-76
2022/08/16 10:23:01;;;;;;;6.32;4.38;;;;;;;31.80;36.55;100719.31;4966355;28;123774;-76
2022/08/16 10:25:36;;;;;;;6.17;4.50;;;;;;;31.83;36.80;100713.41;4966960;28;124322;-76
2022/08/16 10:28:25;;;;;;;6.88;3.60;;;;;;;31.91;36.70;100715.06;4936931;28;113600;-72
2022/08/16 10:30:57;;;;;;;7.93;4.20;;;;;;;31.99;36.20;100710.22;4968334;28;114621;-72
2022/08/16 10:33:26;;;;;;;6.28;5.28;;;;;;;32.07;36.01;100708.34;4970391;28;124350;-71
2022/08/16 10:35:56;;;;;;;5.88;4.60;;;;;;;32.13;36.21;100712.97;4968037;28;123534;-73
2022/08/16 10:38:29;;;;;;;6.40;4.70;;;;;;;32.18;35.77;100710.41;4967832;28;114254;-73
2022/08/16 10:41:07;;;;;;;5.53;4.43;;;;;;;32.23;35.80;100712.50;4951224;28;113802;-73
2022/08/16 10:43:37;;;;;;;7.47;4.20;;;;;;;32.28;35.67;100715.44;4952765;28;123390;-72
2022/08/16 10:46:08;;;;;;;6.13;4.22;;;;;;;32.33;35.75;100713.75;4969208;28;124489;-73
2022/08/16 10:48:55;;;;;;;4.75;3.92;;;;;;;32.44;35.68;100716.84;4965547;28;115845;-73
2022/08/16 10:51:24;;;;;;;5.00;3.78;;;;;;;32.49;35.14;100725.28;4970924;28;115173;-73
2022/08/16 10:54:01;;;;;;;5.45;4.07;;;;;;;32.54;34.75;100714.50;4968597;28;124309;-73
2022/08/16 10:56:31;;;;;;;4.22;3.83;;;;;;;32.61;34.89;100715.34;4953786;28;123715;-73
2022/08/16 10:59:18;;;;;;;5.80;4.38;;;;;;;32.73;34.88;100713.59;4962275;28;114365;-73
2022/08/16 11:02:07;;;;;;;6.90;3.97;;;;;;;32.85;34.47;100715.63;4963446;28;113980;-73
2022/08/16 11:04:54;;;;;;;6.03;3.75;;;;;;;32.92;34.70;100710.97;4966313;28;124045;-73
2022/08/16 11:07:40;;;;;;;7.28;3.53;;;;;;;32.96;33.89;100712.19;4968082;28;124190;-72
2022/08/16 11:10:15;;;;;;;5.35;3.50;;;;;;;32.99;33.64;100722.75;4968089;28;114057;-73
2022/08/16 11:12:47;;;;;;;5.90;3.50;;;;;;;33.01;33.36;100723.38;4967525;28;114100;-73
2022/08/16 11:15:19;;;;;;;6.20;3.75;;;;;;;33.05;33.21;100716.38;4963394;28;124741;-73
2022/08/16 11:17:49;;;;;;;5.68;4.38;;;;;;;33.08;32.94;100726.09;4969367;28;123729;-73
2022/08/16 11:20:37;;;;;;;5.50;3.70;;;;;;;33.09;33.18;100723.09;4963627;28;114177;-73
2022/08/16 11:23:10;;;;;;;4.50;3.47;;;;;;;33.14;33.02;100730.72;4951954;28;113893;-74
2022/08/16 11:25:37;;;;;;;5.28;3.53;;;;;;;33.21;32.96;100728.78;4965075;28;123046;-73
2022/08/16 11:28:24;;;;;;;5.82;4.15;;;;;;;33.30;32.82;100729.31;4965648;28;123385;-75
2022/08/16 11:31:11;;;;;;;6.95;3.70;;;;;;;33.40;32.79;100729.69;4968385;28;114404;-75
2022/08/16 11:33:39;;;;;;;5.05;3.63;;;;;;;33.46;32.02;100728.78;4968679;28;113753;-73
2022/08/16 11:36:22;;;;;;;4.00;3.10;;;;;;;33.51;32.59;100737.19;4962368;28;121903;-74
2022/08/16 11:38:54;;;;;;;5.78;3.80;;;;;;;33.56;32.24;100733.75;4967578;28;122198;-74
2022/08/16 11:41:26;;;;;;;4.15;3.22;;;;;;;33.56;31.91;100731.03;4966971;28;115353;-74
2022/08/16 11:43:56;;;;;;;4.57;3.80;;;;;;;33.62;31.68;100737.53;4963251;28;115260;-74
2022/08/16 11:46:24;;;;;;;4.60;3.10;;;;;;;33.64;31.43;100730.75;4965072;28;123003;-72